Aeroporto :
LOGIN :

Iscrizione | Disclaimer

   EN    FR    IT 

 










Sommario :    VFR   VFR Marginale   IFR   IFR Intensivo   IFR Molto Intensivo
Visibilità : 
Base nubi : 
>= 8 km
>= 3000ft
5 / 8 km
1000 / 3000 ft
1500m / 5 km
500 / 1000 ft
800 / 1500m
200 / 500 ft
< 800m
< 200 ft
Simboli :   Temporali  Nebbia  Neve Forte  Precipitazioni Forti  Vento > 20 kt
SIGMETs :   Varie  Temporali  Ghiacco  Turbolenza  Onda orograficha  Ceneri Vulcaniche






- Altitudine del aeroporto : 296 ft
- Codice IATA : GKE


ETNG - Geilenkirchen

ULTIMO METAR :
  • 192359Z AUTO 30007KT 9999 SCT012/// BKN024/// OVC036/// 05/04 Q1015

METARs OBSOLETI :
  • 192350Z AUTO 30007KT 9999 BKN014/// BKN022/// OVC037/// 05/04 Q1015
  • 192344Z AUTO 30007KT 9999 OVC015/// 05/04 Q1015
  • 192302Z AUTO 32008KT 290V010 9000 FEW007/// BKN014/// OVC024/// 06/04 Q1015
  • 192250Z AUTO 30011KT 280V340 9000 FEW007/// OVC016/// 06/04 Q1015
  • 192150Z AUTO 29012KT 260V330 9999 BKN017/// OVC026/// 07/04 Q1014
  • 192050Z AUTO 30013KT 9999 BKN020/// BKN029/// OVC038/// 07/03 Q1014
  • 191950Z AUTO 29012KT 9999 BKN025/// BKN046/// BKN055/// 07/03 Q1013

TAF TAF ETNG
Valido dal 19 a 15 ore il 20 a 06 ore UTC


191400Z 1915/2006 29015G25KT 9999 BKN020
TEMPO 1915/1921 31017G30KT 4500 SHRA BKN015CB



MetMap, La meteo Aeronautica in un colpo d'occhio ! - Copyright ORBIFLY Dicembre 2007 - Disclaimer

ORBIFLY MET'MAP TEAM :

Programmazione e sviluppo : Alexandra Zaïnal
Concezione : Baudouin d'Aumeries
Supporto tecnico e logistico : Manuel Goepfert
Aiuto : Marc-Olivier Méhu
Aiuto per la traduzione : Arnaldo La Scala




FONTI E CREDITI :

   NOAA